DEKT2: Red River, Dekalb, TX

Data processed at Sat Dec 09 2017 23:29


All information presented herein is the property of the government of the United States of America and may be revised or deleted at any time without prior notice.
Dissemination of this information without the expressed written consent of the Public Affairs Office, Tulsa District U.S. Army Corps of Engineers is strictly prohibited.
These data are gathered electronically and, as presented, have not undergone any form of quality control. These data are not guaranteed to be valid or correct.
Go to home page.
Go to station list.

Upstream stations:

Downstream station:
Previous Day
Next Day
Current Day
    
SHEF ID:       DEKT2     Red River near De Kalb, TX
STATION TYPE:  

               PRECIP     STAGE  STAGE(2)  RIV-FLOW  BAT-LOAD
                   in        ft        ft       cfs      volt
              Ccp-Rev   Ccp-Rev   Ccp-Rev   Ccp-Rev   Ccp-Rev
(US/Central)
12/07 00:00      0.00      8.57     17.39      1597     12.65
12/07 01:00      0.00      8.56     17.38      1587     12.65
12/07 02:00      0.00      8.56     17.38      1587     12.65
12/07 03:00      0.00      8.56     17.40      1587     12.65
12/07 04:00      0.00      8.55     17.36      1577     12.57
12/07 05:00      0.00      8.55     17.38      1577     12.57
12/07 06:00      0.01      8.55     17.37      1577     12.49
12/07 07:00      0.00      8.56     17.33      1587     12.49
12/07 08:00      0.00      8.55     17.38      1577     12.41
12/07 09:00      0.00      8.55     17.38      1577     12.73
12/07 10:00      0.00     12.30     17.37      7972     13.37
12/07 11:00      0.00      8.55     17.35      1577     13.84
12/07 12:00      0.00      8.52     17.35      1546     13.76
12/07 13:00      0.00      8.56     17.34      1587     13.68
12/07 14:00      0.00      8.53     17.36      1556     13.60
12/07 15:00      0.00      8.51     17.40      1535     14.16
12/07 16:00      0.00      8.52     17.37      1546     13.44
12/07 17:00      0.00      8.51     17.34      1535     13.53
12/07 18:00      0.00      8.52     17.35      1546     13.21
12/07 19:00      0.00      8.51     17.33      1535     12.81
12/07 20:00      0.00      8.50     17.35      1525     12.73
12/07 21:00      0.00      8.52     17.35      1546     12.65
12/07 22:00      0.00      8.50     17.31      1525     12.65
12/07 23:00      0.01      8.51     17.34      1535     12.65